Harrisville, Rhode Island
Current Conditions -  °F | °C
As of 4:15 AM on Wednesday 28 Jan 2015 (Local Time) from KSFZ Reporting Station
Clear Clear  
Wind Chill: -3°   Ceiling: Unl
Heat Index: 10°   Visibility: 10mi
Dew Point: -2°   Wind: 10mph
Humidity: 57%   Direction: 290°WNW
Pressure: 29.73"   Gusts: NA
Location:  41.97°N, 71.68°W
Report Text: KSFZ 280915Z 29009KT 10SM CLR M12/M19 A2973 RMK AO1
Loading
Personal Weather Stations






























Interactive Weather Map New forecast layout! Learn more

10-Day Weather Forecast

Advertisements
Track Severe Weather on mobile